Terminal Aerodrome Forecast
Issued by NWS

Home | Current Version | Previous Version | Text Only | Print | Product List | Glossary On
Versions: 1 2 3 4 5 6 7 8 9 10 11 12
212
FTUS43 KPAH 012340
TAFCGI
TAF
KCGI 012340Z 0200/0224 24007KT P6SM FEW050
     FM020200 32007KT P6SM SKC
     FM021200 35006KT P6SM FEW015 BKN150
     FM022000 33009KT P6SM BKN040=

USA.gov is the U.S. government's official web portal to all federal, state and local government web resources and services.